Time,TemperatureF,DewpointF,PressureIn,WindDirection,WindDirectionDegrees,WindSpeedMPH,WindSpeedGustMPH,Humidity,HourlyPrecipIn,Conditions,Clouds,dailyrainin,SoftwareType,DateUTC
2013-06-07 00:14:00,56.8,53.0,30.09,NE,34,0.0,0.0,86,0.00,,,0.00,weatherlink.com 1.10,2013-06-07 04:14:00,
2013-06-07 00:29:00,56.1,53.0,30.09,NE,34,0.0,0.0,90,0.01,,,0.01,weatherlink.com 1.10,2013-06-07 04:29:00,
2013-06-07 00:44:00,55.7,53.0,30.09,NE,34,0.0,0.0,91,0.01,,,0.01,weatherlink.com 1.10,2013-06-07 04:44:00,
2013-06-07 00:59:00,55.2,53.0,30.09,NE,34,0.0,3.0,92,0.01,,,0.01,weatherlink.com 1.10,2013-06-07 04:59:00,
2013-06-07 01:14:00,54.9,53.0,30.09,NE,34,0.0,0.0,92,0.01,,,0.01,weatherlink.com 1.10,2013-06-07 05:14:00,
2013-06-07 01:29:00,54.9,53.0,30.09,NE,34,0.0,0.0,93,0.01,,,0.02,weatherlink.com 1.10,2013-06-07 05:29:00,
2013-06-07 01:44:00,54.8,53.0,30.08,NE,34,0.0,0.0,93,0.01,,,0.02,weatherlink.com 1.10,2013-06-07 05:44:00,
2013-06-07 01:59:00,54.8,53.0,30.07,NE,34,0.0,0.0,94,0.01,,,0.02,weatherlink.com 1.10,2013-06-07 05:59:00,
2013-06-07 02:14:00,54.5,53.0,30.07,NE,34,0.0,0.0,94,0.02,,,0.03,weatherlink.com 1.10,2013-06-07 06:14:00,
2013-06-07 02:29:00,54.5,53.0,30.06,NE,34,0.0,0.0,94,0.01,,,0.03,weatherlink.com 1.10,2013-06-07 06:29:00,
2013-06-07 02:44:00,54.5,53.0,30.06,NE,34,0.0,1.0,95,0.01,,,0.03,weatherlink.com 1.10,2013-06-07 06:44:00,
2013-06-07 03:01:00,54.4,53.0,30.06,NE,34,0.0,1.0,95,0.01,,,0.03,weatherlink.com 1.10,2013-06-07 07:01:00,
2013-06-07 03:14:00,54.3,53.0,30.05,NE,34,0.0,0.0,95,0.00,,,0.03,weatherlink.com 1.10,2013-06-07 07:14:00,
2013-06-07 03:30:00,54.4,53.0,30.05,NE,34,0.0,0.0,95,0.00,,,0.03,weatherlink.com 1.10,2013-06-07 07:30:00,
2013-06-07 03:45:00,54.6,53.0,30.05,NE,34,0.0,1.0,95,0.00,,,0.03,weatherlink.com 1.10,2013-06-07 07:45:00,
2013-06-07 04:00:00,54.4,53.0,30.04,NE,34,0.0,0.0,95,0.00,,,0.03,weatherlink.com 1.10,2013-06-07 08:00:00,
2013-06-07 04:15:00,54.5,53.0,30.05,NE,34,0.0,1.0,95,0.00,,,0.03,weatherlink.com 1.10,2013-06-07 08:15:00,
2013-06-07 04:30:00,54.6,53.0,30.04,NE,34,0.0,2.0,95,0.00,,,0.03,weatherlink.com 1.10,2013-06-07 08:30:00,
2013-06-07 04:45:00,54.6,53.0,30.04,NE,34,0.0,1.0,95,0.01,,,0.04,weatherlink.com 1.10,2013-06-07 08:45:00,
2013-06-07 05:00:00,54.6,53.0,30.04,NE,34,0.0,0.0,95,0.01,,,0.04,weatherlink.com 1.10,2013-06-07 09:00:00,
2013-06-07 05:15:00,54.6,53.0,30.04,NE,34,0.0,2.0,95,0.01,,,0.04,weatherlink.com 1.10,2013-06-07 09:15:00,
2013-06-07 05:30:00,54.6,53.0,30.04,East,94,0.0,5.0,95,0.01,,,0.04,weatherlink.com 1.10,2013-06-07 09:30:00,
2013-06-07 05:45:00,54.5,53.0,30.04,East,96,0.0,3.0,94,0.00,,,0.04,weatherlink.com 1.10,2013-06-07 09:45:00,
2013-06-07 06:00:00,54.4,53.0,30.05,East,100,0.0,5.0,94,0.01,,,0.05,weatherlink.com 1.10,2013-06-07 10:00:00,
2013-06-07 06:15:00,54.3,53.0,30.05,East,86,0.0,1.0,94,0.01,,,0.05,weatherlink.com 1.10,2013-06-07 10:15:00,
2013-06-07 06:30:00,54.3,53.0,30.06,East,86,0.0,1.0,94,0.01,,,0.05,weatherlink.com 1.10,2013-06-07 10:30:00,
2013-06-07 06:45:00,54.4,53.0,30.05,ESE,122,0.0,5.0,94,0.01,,,0.05,weatherlink.com 1.10,2013-06-07 10:45:00,
2013-06-07 07:00:00,54.4,53.0,30.06,ESE,106,0.0,3.0,94,0.00,,,0.05,weatherlink.com 1.10,2013-06-07 11:00:00,
2013-06-07 07:15:00,54.4,53.0,30.06,ESE,106,0.0,1.0,94,0.00,,,0.05,weatherlink.com 1.10,2013-06-07 11:15:00,
2013-06-07 07:30:00,54.4,53.0,30.06,ESE,106,0.0,2.0,94,0.00,,,0.05,weatherlink.com 1.10,2013-06-07 11:30:00,
2013-06-07 07:45:00,54.6,53.0,30.06,ESE,106,0.0,1.0,94,0.00,,,0.05,weatherlink.com 1.10,2013-06-07 11:45:00,
2013-06-07 08:00:00,54.6,53.0,30.06,ESE,106,0.0,1.0,94,0.00,,,0.05,weatherlink.com 1.10,2013-06-07 12:00:00,
2013-06-07 08:15:00,54.5,53.0,30.06,ESE,106,0.0,3.0,93,0.01,,,0.06,weatherlink.com 1.10,2013-06-07 12:15:00,
2013-06-07 08:30:00,54.4,52.0,30.07,East,101,0.0,3.0,92,0.01,,,0.06,weatherlink.com 1.10,2013-06-07 12:30:00,
2013-06-07 08:45:00,54.6,53.0,30.07,East,101,0.0,3.0,93,0.01,,,0.06,weatherlink.com 1.10,2013-06-07 12:45:00,
2013-06-07 09:00:00,54.6,52.0,30.07,East,101,0.0,3.0,91,0.01,,,0.06,weatherlink.com 1.10,2013-06-07 13:00:00,
2013-06-07 09:15:00,54.2,51.0,30.07,East,92,0.0,5.0,88,0.00,,,0.06,weatherlink.com 1.10,2013-06-07 13:15:00,
2013-06-07 09:30:00,53.7,50.0,30.07,ESE,102,0.0,7.0,88,0.00,,,0.06,weatherlink.com 1.10,2013-06-07 13:30:00,
2013-06-07 09:45:00,53.3,49.0,30.07,ESE,102,0.0,6.0,84,0.00,,,0.06,weatherlink.com 1.10,2013-06-07 13:45:00,
2013-06-07 10:00:00,53.3,48.0,30.07,ESE,110,0.0,8.0,82,0.00,,,0.06,weatherlink.com 1.10,2013-06-07 14:00:00,
2013-06-07 10:17:00,53.2,49.0,30.08,East,96,0.0,1.0,84,0.00,,,0.06,weatherlink.com 1.10,2013-06-07 14:17:00,
2013-06-07 10:30:00,52.6,48.0,30.08,East,92,0.0,6.0,84,0.01,,,0.07,weatherlink.com 1.10,2013-06-07 14:30:00,
2013-06-07 10:45:00,51.7,48.0,30.07,ESE,123,2.0,6.0,88,0.01,,,0.07,weatherlink.com 1.10,2013-06-07 14:45:00,
2013-06-07 11:00:00,51.0,48.0,30.08,ENE,74,2.0,5.0,89,0.02,,,0.08,weatherlink.com 1.10,2013-06-07 15:00:00,
2013-06-07 11:15:00,50.9,48.0,30.08,East,98,1.0,4.0,91,0.03,,,0.09,weatherlink.com 1.10,2013-06-07 15:15:00,
2013-06-07 11:30:00,51.0,49.0,30.08,East,100,0.0,7.0,92,0.04,,,0.11,weatherlink.com 1.10,2013-06-07 15:30:00,
2013-06-07 11:45:00,51.0,49.0,30.08,East,98,1.0,3.0,94,0.06,,,0.13,weatherlink.com 1.10,2013-06-07 15:45:00,
2013-06-07 12:00:00,51.1,49.0,30.08,East,95,6.0,9.0,93,0.05,,,0.13,weatherlink.com 1.10,2013-06-07 16:00:00,
2013-06-07 12:15:00,51.5,50.0,30.07,SE,130,0.0,9.0,93,0.04,,,0.13,weatherlink.com 1.10,2013-06-07 16:15:00,
2013-06-07 12:30:00,51.8,50.0,30.07,ENE,76,0.0,9.0,93,0.02,,,0.13,weatherlink.com 1.10,2013-06-07 16:30:00,
2013-06-07 12:45:00,51.9,50.0,30.07,ENE,71,1.0,8.0,92,0.00,,,0.13,weatherlink.com 1.10,2013-06-07 16:45:00,
2013-06-07 13:00:00,52.4,50.0,30.06,ENE,69,0.0,9.0,92,0.00,,,0.13,weatherlink.com 1.10,2013-06-07 17:00:00,
2013-06-07 13:15:00,52.3,50.0,30.06,ENE,58,3.0,9.0,91,0.01,,,0.14,weatherlink.com 1.10,2013-06-07 17:15:00,
2013-06-07 13:30:00,51.8,50.0,30.05,ENE,67,3.0,9.0,92,0.02,,,0.15,weatherlink.com 1.10,2013-06-07 17:30:00,
2013-06-07 13:45:00,51.5,49.0,30.06,East,83,5.0,7.0,92,0.04,,,0.17,weatherlink.com 1.10,2013-06-07 17:45:00,
2013-06-07 14:00:00,51.4,50.0,30.05,ENE,74,0.0,7.0,93,0.06,,,0.19,weatherlink.com 1.10,2013-06-07 18:00:00,
2013-06-07 14:15:00,51.4,50.0,30.05,ENE,71,0.0,9.0,93,0.05,,,0.19,weatherlink.com 1.10,2013-06-07 18:15:00,
2013-06-07 14:30:00,51.2,49.0,30.05,East,92,0.0,5.0,93,0.04,,,0.19,weatherlink.com 1.10,2013-06-07 18:30:00,
2013-06-07 14:45:00,51.0,49.0,30.05,East,99,1.0,7.0,93,0.02,,,0.19,weatherlink.com 1.10,2013-06-07 18:45:00,
2013-06-07 15:00:00,50.7,49.0,30.05,East,97,2.0,5.0,93,0.00,,,0.19,weatherlink.com 1.10,2013-06-07 19:00:00,
2013-06-07 15:15:00,50.9,49.0,30.05,NE,46,0.0,4.0,93,0.00,,,0.19,weatherlink.com 1.10,2013-06-07 19:15:00,
2013-06-07 15:30:00,51.1,49.0,30.05,NE,46,0.0,2.0,93,0.00,,,0.19,weatherlink.com 1.10,2013-06-07 19:30:00,
2013-06-07 15:45:00,51.4,50.0,30.05,NE,44,0.0,3.0,94,0.01,,,0.20,weatherlink.com 1.10,2013-06-07 19:45:00,
2013-06-07 16:00:00,51.4,50.0,30.04,East,88,1.0,3.0,93,0.01,,,0.20,weatherlink.com 1.10,2013-06-07 20:00:00,
2013-06-07 16:15:00,51.6,50.0,30.04,East,85,0.0,2.0,94,0.01,,,0.20,weatherlink.com 1.10,2013-06-07 20:15:00,
2013-06-07 16:45:00,51.9,50.0,30.02,NNE,32,2.0,3.0,94,0.02,,,0.22,weatherlink.com 1.10,2013-06-07 20:45:00,
2013-06-07 17:00:00,51.9,50.0,30.01,ENE,72,0.0,6.0,94,0.03,,,0.23,weatherlink.com 1.10,2013-06-07 21:00:00,
2013-06-07 17:15:00,52.0,50.0,30.00,NE,34,0.0,3.0,94,0.04,,,0.24,weatherlink.com 1.10,2013-06-07 21:15:00,
2013-06-07 17:45:00,51.9,51.0,29.99,East,88,0.0,2.0,95,0.06,,,0.28,weatherlink.com 1.10,2013-06-07 21:45:00,
2013-06-07 18:01:00,52.0,51.0,29.99,East,88,0.0,2.0,95,0.06,,,0.29,weatherlink.com 1.10,2013-06-07 22:01:00,
2013-06-07 18:16:00,51.9,51.0,29.99,NNW,340,0.0,6.0,95,0.06,,,0.30,weatherlink.com 1.10,2013-06-07 22:16:00,
2013-06-07 18:31:00,51.9,51.0,29.99,ESE,109,3.0,8.0,95,0.04,,,0.31,weatherlink.com 1.10,2013-06-07 22:31:00,
2013-06-07 19:31:00,51.7,50.0,29.99,ENE,66,0.0,3.0,95,0.04,,,0.35,weatherlink.com 1.10,2013-06-07 23:31:00,
2013-06-07 19:46:00,51.7,51.0,29.98,East,87,0.0,6.0,96,0.06,,,0.37,weatherlink.com 1.10,2013-06-07 23:46:00,
2013-06-07 20:31:00,51.2,50.0,29.96,East,91,0.0,6.0,95,0.08,,,0.43,weatherlink.com 1.10,2013-06-08 00:31:00,
2013-06-07 21:01:00,51.2,50.0,29.96,ESE,113,0.0,5.0,96,0.10,,,0.49,weatherlink.com 1.10,2013-06-08 01:01:00,
2013-06-07 21:16:00,51.2,50.0,29.95,NNE,28,0.0,1.0,96,0.13,,,0.53,weatherlink.com 1.10,2013-06-08 01:16:00,
2013-06-07 21:46:00,51.2,50.0,29.94,ENE,74,0.0,3.0,96,0.08,,,0.54,weatherlink.com 1.10,2013-06-08 01:46:00,
2013-06-07 22:31:00,51.6,51.0,29.92,ENE,74,0.0,1.0,97,0.03,,,0.57,weatherlink.com 1.10,2013-06-08 02:31:00,
2013-06-07 22:46:00,51.7,51.0,29.92,ENE,69,0.0,1.0,96,0.04,,,0.58,weatherlink.com 1.10,2013-06-08 02:46:00,
2013-06-07 23:16:00,51.6,51.0,29.92,WNW,283,0.0,0.0,96,0.04,,,0.59,weatherlink.com 1.10,2013-06-08 03:16:00,
2013-06-07 23:47:00,51.5,50.0,29.90,NNW,344,0.0,1.0,96,0.02,,,0.60,weatherlink.com 1.10,2013-06-08 03:47:00,